sensor_id;sensor_type;location;lat;lon;timestamp;P1;durP1;ratioP1;P2;durP2;ratioP2
23230;SDS011;11784;49.818;8.632;2024-03-02T00:02:12;12.68;;;5.68;;
23230;SDS011;11784;49.818;8.632;2024-03-02T00:04:39;8.88;;;4.75;;
23230;SDS011;11784;49.818;8.632;2024-03-02T00:07:05;9.98;;;5.50;;
23230;SDS011;11784;49.818;8.632;2024-03-02T00:09:32;9.52;;;5.15;;
23230;SDS011;11784;49.818;8.632;2024-03-02T00:11:59;13.35;;;6.55;;
23230;SDS011;11784;49.818;8.632;2024-03-02T00:14:25;11.30;;;5.07;;
23230;SDS011;11784;49.818;8.632;2024-03-02T00:16:54;11.85;;;5.13;;
23230;SDS011;11784;49.818;8.632;2024-03-02T00:19:21;10.40;;;5.80;;
23230;SDS011;11784;49.818;8.632;2024-03-02T00:21:48;10.75;;;5.75;;
23230;SDS011;11784;49.818;8.632;2024-03-02T00:24:30;8.57;;;5.32;;
23230;SDS011;11784;49.818;8.632;2024-03-02T00:26:57;10.45;;;4.97;;
23230;SDS011;11784;49.818;8.632;2024-03-02T00:29:23;11.05;;;5.80;;
23230;SDS011;11784;49.818;8.632;2024-03-02T00:31:50;8.55;;;4.70;;
23230;SDS011;11784;49.818;8.632;2024-03-02T00:34:16;9.45;;;4.80;;
23230;SDS011;11784;49.818;8.632;2024-03-02T00:36:43;11.85;;;5.85;;
23230;SDS011;11784;49.818;8.632;2024-03-02T00:39:09;10.23;;;5.57;;
23230;SDS011;11784;49.818;8.632;2024-03-02T00:41:38;9.90;;;4.75;;
23230;SDS011;11784;49.818;8.632;2024-03-02T00:44:07;10.65;;;4.88;;
23230;SDS011;11784;49.818;8.632;2024-03-02T00:46:36;9.95;;;4.57;;
23230;SDS011;11784;49.818;8.632;2024-03-02T00:49:03;9.52;;;5.28;;
23230;SDS011;11784;49.818;8.632;2024-03-02T00:51:31;7.60;;;4.22;;
23230;SDS011;11784;49.818;8.632;2024-03-02T00:54:04;9.20;;;4.43;;
23230;SDS011;11784;49.818;8.632;2024-03-02T00:56:30;11.00;;;5.13;;
23230;SDS011;11784;49.818;8.632;2024-03-02T00:58:56;11.30;;;4.95;;
23230;SDS011;11784;49.818;8.632;2024-03-02T01:01:22;9.18;;;4.97;;
23230;SDS011;11784;49.818;8.632;2024-03-02T01:03:48;12.18;;;4.47;;
23230;SDS011;11784;49.818;8.632;2024-03-02T01:06:15;9.93;;;4.75;;
23230;SDS011;11784;49.818;8.632;2024-03-02T01:08:41;12.35;;;5.57;;
23230;SDS011;11784;49.818;8.632;2024-03-02T01:11:07;11.00;;;4.35;;
23230;SDS011;11784;49.818;8.632;2024-03-02T01:13:33;8.18;;;4.60;;
23230;SDS011;11784;49.818;8.632;2024-03-02T01:15:59;8.98;;;4.80;;
23230;SDS011;11784;49.818;8.632;2024-03-02T01:18:25;9.32;;;4.53;;
23230;SDS011;11784;49.818;8.632;2024-03-02T01:20:51;8.15;;;4.20;;
23230;SDS011;11784;49.818;8.632;2024-03-02T01:23:24;10.00;;;4.95;;
23230;SDS011;11784;49.818;8.632;2024-03-02T01:25:51;7.25;;;4.22;;
23230;SDS011;11784;49.818;8.632;2024-03-02T01:28:17;8.82;;;3.95;;
23230;SDS011;11784;49.818;8.632;2024-03-02T01:30:44;10.32;;;5.20;;
23230;SDS011;11784;49.818;8.632;2024-03-02T01:33:10;6.53;;;3.60;;
23230;SDS011;11784;49.818;8.632;2024-03-02T01:35:36;7.95;;;4.57;;
23230;SDS011;11784;49.818;8.632;2024-03-02T01:38:02;8.13;;;4.40;;
23230;SDS011;11784;49.818;8.632;2024-03-02T01:40:28;11.20;;;4.78;;
23230;SDS011;11784;49.818;8.632;2024-03-02T01:42:54;10.48;;;4.63;;
23230;SDS011;11784;49.818;8.632;2024-03-02T01:45:20;12.52;;;6.05;;
23230;SDS011;11784;49.818;8.632;2024-03-02T01:47:47;12.30;;;5.32;;
23230;SDS011;11784;49.818;8.632;2024-03-02T01:50:13;14.38;;;5.82;;
23230;SDS011;11784;49.818;8.632;2024-03-02T01:52:39;12.27;;;4.93;;
23230;SDS011;11784;49.818;8.632;2024-03-02T01:55:05;11.88;;;5.75;;
23230;SDS011;11784;49.818;8.632;2024-03-02T01:57:32;8.80;;;5.10;;
23230;SDS011;11784;49.818;8.632;2024-03-02T01:59:58;11.52;;;4.60;;
23230;SDS011;11784;49.818;8.632;2024-03-02T02:02:24;13.30;;;4.43;;
23230;SDS011;11784;49.818;8.632;2024-03-02T02:04:50;9.40;;;4.97;;
23230;SDS011;11784;49.818;8.632;2024-03-02T02:07:16;8.30;;;4.85;;
23230;SDS011;11784;49.818;8.632;2024-03-02T02:09:42;8.35;;;4.95;;
23230;SDS011;11784;49.818;8.632;2024-03-02T02:12:11;8.07;;;3.95;;
23230;SDS011;11784;49.818;8.632;2024-03-02T02:14:37;10.82;;;4.60;;
23230;SDS011;11784;49.818;8.632;2024-03-02T02:17:05;10.15;;;4.68;;
23230;SDS011;11784;49.818;8.632;2024-03-02T02:19:30;9.43;;;4.18;;
23230;SDS011;11784;49.818;8.632;2024-03-02T02:21:56;11.75;;;4.35;;
23230;SDS011;11784;49.818;8.632;2024-03-02T02:24:22;6.20;;;3.72;;
23230;SDS011;11784;49.818;8.632;2024-03-02T02:26:48;6.13;;;3.50;;
23230;SDS011;11784;49.818;8.632;2024-03-02T02:29:14;8.27;;;3.17;;
23230;SDS011;11784;49.818;8.632;2024-03-02T02:31:40;6.25;;;3.67;;
23230;SDS011;11784;49.818;8.632;2024-03-02T02:34:07;7.30;;;3.78;;
23230;SDS011;11784;49.818;8.632;2024-03-02T02:36:34;5.53;;;3.20;;
23230;SDS011;11784;49.818;8.632;2024-03-02T02:39:02;6.75;;;3.53;;
23230;SDS011;11784;49.818;8.632;2024-03-02T02:41:28;9.20;;;3.92;;
23230;SDS011;11784;49.818;8.632;2024-03-02T02:43:55;6.07;;;3.80;;
23230;SDS011;11784;49.818;8.632;2024-03-02T02:46:20;7.38;;;3.30;;
23230;SDS011;11784;49.818;8.632;2024-03-02T02:48:46;6.47;;;3.33;;
23230;SDS011;11784;49.818;8.632;2024-03-02T02:51:13;6.78;;;3.15;;
23230;SDS011;11784;49.818;8.632;2024-03-02T02:53:39;5.43;;;3.25;;
23230;SDS011;11784;49.818;8.632;2024-03-02T02:56:07;7.68;;;3.58;;
23230;SDS011;11784;49.818;8.632;2024-03-02T02:58:33;5.90;;;2.95;;
23230;SDS011;11784;49.818;8.632;2024-03-02T03:01:00;6.38;;;3.80;;
23230;SDS011;11784;49.818;8.632;2024-03-02T03:03:26;4.85;;;2.75;;
23230;SDS011;11784;49.818;8.632;2024-03-02T03:05:52;5.95;;;2.75;;
23230;SDS011;11784;49.818;8.632;2024-03-02T03:08:18;4.35;;;2.38;;
23230;SDS011;11784;49.818;8.632;2024-03-02T03:10:44;8.68;;;3.10;;
23230;SDS011;11784;49.818;8.632;2024-03-02T03:13:10;6.78;;;3.13;;
23230;SDS011;11784;49.818;8.632;2024-03-02T03:15:36;5.55;;;3.08;;
23230;SDS011;11784;49.818;8.632;2024-03-02T03:18:03;4.85;;;2.42;;
23230;SDS011;11784;49.818;8.632;2024-03-02T03:20:29;5.47;;;3.00;;
23230;SDS011;11784;49.818;8.632;2024-03-02T03:22:55;5.07;;;2.92;;
23230;SDS011;11784;49.818;8.632;2024-03-02T03:25:21;4.90;;;2.65;;
23230;SDS011;11784;49.818;8.632;2024-03-02T03:27:47;7.00;;;3.00;;
23230;SDS011;11784;49.818;8.632;2024-03-02T03:30:13;7.68;;;3.00;;
23230;SDS011;11784;49.818;8.632;2024-03-02T03:32:40;6.25;;;2.95;;
23230;SDS011;11784;49.818;8.632;2024-03-02T03:35:06;5.82;;;2.97;;
23230;SDS011;11784;49.818;8.632;2024-03-02T03:37:32;4.53;;;2.55;;
23230;SDS011;11784;49.818;8.632;2024-03-02T03:39:58;5.22;;;2.78;;
23230;SDS011;11784;49.818;8.632;2024-03-02T03:42:24;6.72;;;2.72;;
23230;SDS011;11784;49.818;8.632;2024-03-02T03:44:51;4.13;;;2.28;;
23230;SDS011;11784;49.818;8.632;2024-03-02T03:47:17;4.80;;;2.22;;
23230;SDS011;11784;49.818;8.632;2024-03-02T03:49:42;4.10;;;2.35;;
23230;SDS011;11784;49.818;8.632;2024-03-02T03:52:09;5.40;;;2.95;;
23230;SDS011;11784;49.818;8.632;2024-03-02T03:54:35;3.25;;;2.13;;
23230;SDS011;11784;49.818;8.632;2024-03-02T03:57:03;3.88;;;2.28;;
23230;SDS011;11784;49.818;8.632;2024-03-02T03:59:29;4.93;;;2.53;;
23230;SDS011;11784;49.818;8.632;2024-03-02T04:01:55;9.60;;;2.20;;
23230;SDS011;11784;49.818;8.632;2024-03-02T04:04:21;5.68;;;2.50;;
23230;SDS011;11784;49.818;8.632;2024-03-02T04:06:47;3.75;;;2.15;;
23230;SDS011;11784;49.818;8.632;2024-03-02T04:09:13;4.07;;;2.30;;
23230;SDS011;11784;49.818;8.632;2024-03-02T04:11:39;3.85;;;2.28;;
23230;SDS011;11784;49.818;8.632;2024-03-02T04:14:05;3.78;;;2.22;;
23230;SDS011;11784;49.818;8.632;2024-03-02T04:16:31;3.17;;;2.10;;
23230;SDS011;11784;49.818;8.632;2024-03-02T04:18:57;4.55;;;2.35;;
23230;SDS011;11784;49.818;8.632;2024-03-02T04:21:23;5.60;;;2.42;;
23230;SDS011;11784;49.818;8.632;2024-03-02T04:23:49;5.97;;;2.15;;
23230;SDS011;11784;49.818;8.632;2024-03-02T04:26:15;3.05;;;2.10;;
23230;SDS011;11784;49.818;8.632;2024-03-02T04:28:44;3.83;;;2.17;;
23230;SDS011;11784;49.818;8.632;2024-03-02T04:31:10;3.70;;;2.00;;
23230;SDS011;11784;49.818;8.632;2024-03-02T04:33:36;3.53;;;2.08;;
23230;SDS011;11784;49.818;8.632;2024-03-02T04:36:02;4.63;;;2.30;;
23230;SDS011;11784;49.818;8.632;2024-03-02T04:38:28;4.03;;;2.15;;
23230;SDS011;11784;49.818;8.632;2024-03-02T04:40:55;3.38;;;2.03;;
23230;SDS011;11784;49.818;8.632;2024-03-02T04:43:21;3.28;;;1.92;;
23230;SDS011;11784;49.818;8.632;2024-03-02T04:45:47;3.17;;;1.90;;
23230;SDS011;11784;49.818;8.632;2024-03-02T04:48:13;7.03;;;2.70;;
23230;SDS011;11784;49.818;8.632;2024-03-02T04:50:39;5.55;;;2.53;;
23230;SDS011;11784;49.818;8.632;2024-03-02T04:53:05;5.22;;;2.55;;
23230;SDS011;11784;49.818;8.632;2024-03-02T04:55:31;4.60;;;2.30;;
23230;SDS011;11784;49.818;8.632;2024-03-02T04:58:00;18.98;;;7.88;;
23230;SDS011;11784;49.818;8.632;2024-03-02T05:00:26;13.38;;;5.75;;
23230;SDS011;11784;49.818;8.632;2024-03-02T05:02:52;11.48;;;4.97;;
23230;SDS011;11784;49.818;8.632;2024-03-02T05:05:17;13.38;;;6.13;;
23230;SDS011;11784;49.818;8.632;2024-03-02T05:07:43;13.32;;;5.97;;
23230;SDS011;11784;49.818;8.632;2024-03-02T05:10:10;10.68;;;4.95;;
23230;SDS011;11784;49.818;8.632;2024-03-02T05:12:36;11.98;;;5.43;;
23230;SDS011;11784;49.818;8.632;2024-03-02T05:15:09;13.60;;;4.32;;
23230;SDS011;11784;49.818;8.632;2024-03-02T05:17:35;8.07;;;3.75;;
23230;SDS011;11784;49.818;8.632;2024-03-02T05:20:02;12.52;;;5.25;;
23230;SDS011;11784;49.818;8.632;2024-03-02T05:22:28;10.73;;;4.93;;
23230;SDS011;11784;49.818;8.632;2024-03-02T05:24:54;12.88;;;5.00;;
23230;SDS011;11784;49.818;8.632;2024-03-02T05:27:21;12.52;;;4.38;;
23230;SDS011;11784;49.818;8.632;2024-03-02T05:29:47;9.50;;;4.18;;
23230;SDS011;11784;49.818;8.632;2024-03-02T05:32:13;11.82;;;4.88;;
23230;SDS011;11784;49.818;8.632;2024-03-02T05:34:39;16.02;;;5.70;;
23230;SDS011;11784;49.818;8.632;2024-03-02T05:37:05;8.15;;;4.05;;
23230;SDS011;11784;49.818;8.632;2024-03-02T05:39:32;11.27;;;4.82;;
23230;SDS011;11784;49.818;8.632;2024-03-02T05:41:58;16.70;;;5.68;;
23230;SDS011;11784;49.818;8.632;2024-03-02T05:44:24;12.32;;;4.07;;
23230;SDS011;11784;49.818;8.632;2024-03-02T05:46:49;8.35;;;3.60;;
23230;SDS011;11784;49.818;8.632;2024-03-02T05:49:15;5.85;;;2.97;;
23230;SDS011;11784;49.818;8.632;2024-03-02T05:51:41;9.68;;;4.35;;
23230;SDS011;11784;49.818;8.632;2024-03-02T05:54:07;9.82;;;3.90;;
23230;SDS011;11784;49.818;8.632;2024-03-02T05:56:33;7.10;;;2.90;;
23230;SDS011;11784;49.818;8.632;2024-03-02T05:58:59;7.25;;;2.60;;
23230;SDS011;11784;49.818;8.632;2024-03-02T06:01:45;6.65;;;3.28;;
23230;SDS011;11784;49.818;8.632;2024-03-02T06:04:17;5.70;;;2.70;;
23230;SDS011;11784;49.818;8.632;2024-03-02T06:06:43;6.60;;;3.03;;
23230;SDS011;11784;49.818;8.632;2024-03-02T06:09:09;5.38;;;2.80;;
23230;SDS011;11784;49.818;8.632;2024-03-02T06:11:40;7.63;;;3.67;;
23230;SDS011;11784;49.818;8.632;2024-03-02T06:14:07;6.57;;;3.17;;
23230;SDS011;11784;49.818;8.632;2024-03-02T06:16:33;7.45;;;3.45;;
23230;SDS011;11784;49.818;8.632;2024-03-02T06:18:59;7.32;;;3.10;;
23230;SDS011;11784;49.818;8.632;2024-03-02T06:21:25;6.93;;;3.15;;
23230;SDS011;11784;49.818;8.632;2024-03-02T06:23:51;6.63;;;2.72;;
23230;SDS011;11784;49.818;8.632;2024-03-02T06:26:17;6.18;;;2.78;;
23230;SDS011;11784;49.818;8.632;2024-03-02T06:28:43;5.47;;;3.03;;
23230;SDS011;11784;49.818;8.632;2024-03-02T06:31:09;6.50;;;3.10;;
23230;SDS011;11784;49.818;8.632;2024-03-02T06:33:35;10.45;;;4.53;;
23230;SDS011;11784;49.818;8.632;2024-03-02T06:36:01;13.25;;;5.15;;
23230;SDS011;11784;49.818;8.632;2024-03-02T06:38:28;14.32;;;5.20;;
23230;SDS011;11784;49.818;8.632;2024-03-02T06:40:54;11.50;;;5.25;;
23230;SDS011;11784;49.818;8.632;2024-03-02T06:43:20;13.25;;;5.25;;
23230;SDS011;11784;49.818;8.632;2024-03-02T06:45:52;9.02;;;4.35;;
23230;SDS011;11784;49.818;8.632;2024-03-02T06:48:18;6.95;;;3.33;;
23230;SDS011;11784;49.818;8.632;2024-03-02T06:50:48;5.97;;;3.40;;
23230;SDS011;11784;49.818;8.632;2024-03-02T06:53:14;6.18;;;3.47;;
23230;SDS011;11784;49.818;8.632;2024-03-02T06:55:42;5.47;;;3.22;;
23230;SDS011;11784;49.818;8.632;2024-03-02T06:58:09;5.15;;;2.53;;
23230;SDS011;11784;49.818;8.632;2024-03-02T07:00:35;5.63;;;3.00;;
23230;SDS011;11784;49.818;8.632;2024-03-02T07:03:01;6.20;;;3.25;;
23230;SDS011;11784;49.818;8.632;2024-03-02T07:05:27;5.05;;;2.80;;
23230;SDS011;11784;49.818;8.632;2024-03-02T07:07:53;5.53;;;3.22;;
23230;SDS011;11784;49.818;8.632;2024-03-02T07:10:19;7.88;;;4.13;;
23230;SDS011;11784;49.818;8.632;2024-03-02T07:12:45;9.18;;;4.05;;
23230;SDS011;11784;49.818;8.632;2024-03-02T07:15:11;6.97;;;3.50;;
23230;SDS011;11784;49.818;8.632;2024-03-02T07:17:54;8.88;;;3.70;;
23230;SDS011;11784;49.818;8.632;2024-03-02T07:20:20;6.88;;;3.55;;
23230;SDS011;11784;49.818;8.632;2024-03-02T07:22:46;8.10;;;3.67;;
23230;SDS011;11784;49.818;8.632;2024-03-02T07:25:11;8.40;;;4.20;;
23230;SDS011;11784;49.818;8.632;2024-03-02T07:27:38;8.13;;;4.22;;
23230;SDS011;11784;49.818;8.632;2024-03-02T07:30:04;7.40;;;3.80;;
23230;SDS011;11784;49.818;8.632;2024-03-02T07:32:30;8.98;;;4.65;;
23230;SDS011;11784;49.818;8.632;2024-03-02T07:34:56;10.82;;;4.68;;
23230;SDS011;11784;49.818;8.632;2024-03-02T07:37:23;10.98;;;5.03;;
23230;SDS011;11784;49.818;8.632;2024-03-02T07:39:49;9.57;;;4.68;;
23230;SDS011;11784;49.818;8.632;2024-03-02T07:42:15;10.18;;;4.82;;
23230;SDS011;11784;49.818;8.632;2024-03-02T07:44:41;10.68;;;4.88;;
23230;SDS011;11784;49.818;8.632;2024-03-02T07:47:07;11.73;;;4.68;;
23230;SDS011;11784;49.818;8.632;2024-03-02T07:49:33;10.05;;;5.20;;
23230;SDS011;11784;49.818;8.632;2024-03-02T07:51:59;9.63;;;5.18;;
23230;SDS011;11784;49.818;8.632;2024-03-02T07:54:25;9.10;;;5.38;;
23230;SDS011;11784;49.818;8.632;2024-03-02T07:56:51;10.65;;;6.10;;
23230;SDS011;11784;49.818;8.632;2024-03-02T07:59:17;9.15;;;4.93;;
23230;SDS011;11784;49.818;8.632;2024-03-02T08:01:43;8.88;;;5.32;;
23230;SDS011;11784;49.818;8.632;2024-03-02T08:04:10;9.70;;;4.95;;
23230;SDS011;11784;49.818;8.632;2024-03-02T08:06:36;9.85;;;5.40;;
23230;SDS011;11784;49.818;8.632;2024-03-02T08:09:02;10.65;;;4.70;;
23230;SDS011;11784;49.818;8.632;2024-03-02T08:11:34;11.68;;;5.57;;
23230;SDS011;11784;49.818;8.632;2024-03-02T08:14:00;9.63;;;5.03;;
23230;SDS011;11784;49.818;8.632;2024-03-02T08:16:26;9.00;;;4.95;;
23230;SDS011;11784;49.818;8.632;2024-03-02T08:18:52;9.93;;;5.82;;
23230;SDS011;11784;49.818;8.632;2024-03-02T08:21:18;12.52;;;6.85;;
23230;SDS011;11784;49.818;8.632;2024-03-02T08:23:44;11.57;;;6.80;;
23230;SDS011;11784;49.818;8.632;2024-03-02T08:26:10;12.38;;;6.70;;
23230;SDS011;11784;49.818;8.632;2024-03-02T08:28:37;12.38;;;6.75;;
23230;SDS011;11784;49.818;8.632;2024-03-02T08:31:05;11.77;;;6.70;;
23230;SDS011;11784;49.818;8.632;2024-03-02T08:33:31;11.05;;;6.68;;
23230;SDS011;11784;49.818;8.632;2024-03-02T08:35:57;12.82;;;7.35;;
23230;SDS011;11784;49.818;8.632;2024-03-02T08:38:23;10.18;;;6.38;;
23230;SDS011;11784;49.818;8.632;2024-03-02T08:40:50;10.25;;;6.15;;
23230;SDS011;11784;49.818;8.632;2024-03-02T08:43:16;13.57;;;6.78;;
23230;SDS011;11784;49.818;8.632;2024-03-02T08:45:42;9.52;;;5.70;;
23230;SDS011;11784;49.818;8.632;2024-03-02T08:48:08;11.85;;;6.88;;
23230;SDS011;11784;49.818;8.632;2024-03-02T08:50:35;10.38;;;6.32;;
23230;SDS011;11784;49.818;8.632;2024-03-02T08:53:01;10.45;;;6.60;;
23230;SDS011;11784;49.818;8.632;2024-03-02T08:55:27;10.20;;;6.55;;
23230;SDS011;11784;49.818;8.632;2024-03-02T08:57:53;9.75;;;6.13;;
23230;SDS011;11784;49.818;8.632;2024-03-02T09:00:19;10.50;;;6.57;;
23230;SDS011;11784;49.818;8.632;2024-03-02T09:02:45;13.25;;;6.22;;
23230;SDS011;11784;49.818;8.632;2024-03-02T09:05:11;9.65;;;5.22;;
23230;SDS011;11784;49.818;8.632;2024-03-02T09:07:37;11.50;;;6.22;;
23230;SDS011;11784;49.818;8.632;2024-03-02T09:10:04;10.07;;;5.88;;
23230;SDS011;11784;49.818;8.632;2024-03-02T09:12:31;10.25;;;5.65;;
23230;SDS011;11784;49.818;8.632;2024-03-02T09:14:57;11.52;;;6.10;;
23230;SDS011;11784;49.818;8.632;2024-03-02T09:17:23;12.00;;;6.35;;
23230;SDS011;11784;49.818;8.632;2024-03-02T09:19:49;11.45;;;6.35;;
23230;SDS011;11784;49.818;8.632;2024-03-02T09:22:20;13.40;;;6.65;;
23230;SDS011;11784;49.818;8.632;2024-03-02T09:24:47;13.50;;;7.65;;
23230;SDS011;11784;49.818;8.632;2024-03-02T09:27:18;12.43;;;6.68;;
23230;SDS011;11784;49.818;8.632;2024-03-02T09:29:45;11.23;;;7.13;;
23230;SDS011;11784;49.818;8.632;2024-03-02T09:32:14;11.88;;;6.90;;
23230;SDS011;11784;49.818;8.632;2024-03-02T09:34:41;11.75;;;6.43;;
23230;SDS011;11784;49.818;8.632;2024-03-02T09:37:11;12.35;;;6.28;;
23230;SDS011;11784;49.818;8.632;2024-03-02T09:39:37;8.10;;;5.00;;
23230;SDS011;11784;49.818;8.632;2024-03-02T09:42:03;9.15;;;4.40;;
23230;SDS011;11784;49.818;8.632;2024-03-02T09:44:30;6.47;;;4.32;;
23230;SDS011;11784;49.818;8.632;2024-03-02T09:46:56;9.38;;;5.03;;
23230;SDS011;11784;49.818;8.632;2024-03-02T09:49:22;8.75;;;4.70;;
23230;SDS011;11784;49.818;8.632;2024-03-02T09:51:49;7.15;;;4.13;;
23230;SDS011;11784;49.818;8.632;2024-03-02T09:54:18;7.13;;;3.85;;
23230;SDS011;11784;49.818;8.632;2024-03-02T09:56:44;10.98;;;4.95;;
23230;SDS011;11784;49.818;8.632;2024-03-02T09:59:10;10.48;;;4.95;;
23230;SDS011;11784;49.818;8.632;2024-03-02T10:01:38;8.98;;;5.38;;
23230;SDS011;11784;49.818;8.632;2024-03-02T10:04:04;8.90;;;4.82;;
23230;SDS011;11784;49.818;8.632;2024-03-02T10:06:31;7.10;;;4.75;;
23230;SDS011;11784;49.818;8.632;2024-03-02T10:08:57;7.50;;;4.70;;
23230;SDS011;11784;49.818;8.632;2024-03-02T10:11:27;8.57;;;4.70;;
23230;SDS011;11784;49.818;8.632;2024-03-02T10:16:33;7.72;;;3.67;;
23230;SDS011;11784;49.818;8.632;2024-03-02T10:19:05;6.22;;;3.95;;
23230;SDS011;11784;49.818;8.632;2024-03-02T10:24:07;5.25;;;3.13;;
23230;SDS011;11784;49.818;8.632;2024-03-02T10:26:33;4.63;;;2.78;;
23230;SDS011;11784;49.818;8.632;2024-03-02T10:28:59;5.13;;;2.35;;
23230;SDS011;11784;49.818;8.632;2024-03-02T10:31:26;4.55;;;2.42;;
23230;SDS011;11784;49.818;8.632;2024-03-02T10:33:55;4.75;;;2.38;;
23230;SDS011;11784;49.818;8.632;2024-03-02T10:36:24;5.57;;;2.38;;
23230;SDS011;11784;49.818;8.632;2024-03-02T10:38:51;4.43;;;2.35;;
23230;SDS011;11784;49.818;8.632;2024-03-02T10:41:22;3.58;;;1.95;;
23230;SDS011;11784;49.818;8.632;2024-03-02T10:43:50;3.95;;;2.20;;
23230;SDS011;11784;49.818;8.632;2024-03-02T10:46:16;3.78;;;2.30;;
23230;SDS011;11784;49.818;8.632;2024-03-02T10:48:45;4.15;;;2.00;;
23230;SDS011;11784;49.818;8.632;2024-03-02T10:51:12;5.68;;;2.35;;
23230;SDS011;11784;49.818;8.632;2024-03-02T10:53:37;2.47;;;1.58;;
23230;SDS011;11784;49.818;8.632;2024-03-02T10:56:04;3.10;;;1.90;;
23230;SDS011;11784;49.818;8.632;2024-03-02T10:58:33;2.35;;;1.50;;
23230;SDS011;11784;49.818;8.632;2024-03-02T11:01:00;4.28;;;1.23;;
23230;SDS011;11784;49.818;8.632;2024-03-02T11:03:27;2.88;;;1.75;;
23230;SDS011;11784;49.818;8.632;2024-03-02T11:05:55;4.38;;;1.88;;
23230;SDS011;11784;49.818;8.632;2024-03-02T11:08:21;1.90;;;1.33;;
23230;SDS011;11784;49.818;8.632;2024-03-02T11:10:50;3.80;;;1.88;;
23230;SDS011;11784;49.818;8.632;2024-03-02T11:13:18;3.75;;;1.58;;
23230;SDS011;11784;49.818;8.632;2024-03-02T11:15:47;2.90;;;1.70;;
23230;SDS011;11784;49.818;8.632;2024-03-02T11:18:13;2.72;;;1.67;;
23230;SDS011;11784;49.818;8.632;2024-03-02T11:20:39;2.72;;;1.35;;
23230;SDS011;11784;49.818;8.632;2024-03-02T11:23:07;3.20;;;1.77;;
23230;SDS011;11784;49.818;8.632;2024-03-02T11:25:33;2.38;;;1.33;;
23230;SDS011;11784;49.818;8.632;2024-03-02T11:27:59;4.55;;;1.95;;
23230;SDS011;11784;49.818;8.632;2024-03-02T11:33:01;3.80;;;2.30;;
23230;SDS011;11784;49.818;8.632;2024-03-02T11:35:44;4.40;;;2.20;;
23230;SDS011;11784;49.818;8.632;2024-03-02T11:38:13;4.18;;;2.53;;
23230;SDS011;11784;49.818;8.632;2024-03-02T11:40:40;4.72;;;2.42;;
23230;SDS011;11784;49.818;8.632;2024-03-02T11:43:06;3.05;;;1.90;;
23230;SDS011;11784;49.818;8.632;2024-03-02T11:45:33;4.22;;;2.10;;
23230;SDS011;11784;49.818;8.632;2024-03-02T11:47:59;2.53;;;1.60;;
23230;SDS011;11784;49.818;8.632;2024-03-02T11:50:35;3.08;;;1.77;;
23230;SDS011;11784;49.818;8.632;2024-03-02T11:53:02;2.42;;;1.08;;
23230;SDS011;11784;49.818;8.632;2024-03-02T11:55:31;4.20;;;1.00;;
23230;SDS011;11784;49.818;8.632;2024-03-02T11:57:57;1.85;;;1.15;;
23230;SDS011;11784;49.818;8.632;2024-03-02T12:00:24;2.58;;;1.02;;
23230;SDS011;11784;49.818;8.632;2024-03-02T12:03:01;1.92;;;1.15;;
23230;SDS011;11784;49.818;8.632;2024-03-02T12:05:27;3.00;;;1.33;;
23230;SDS011;11784;49.818;8.632;2024-03-02T12:07:57;3.95;;;1.40;;
23230;SDS011;11784;49.818;8.632;2024-03-02T12:10:23;1.88;;;1.20;;
23230;SDS011;11784;49.818;8.632;2024-03-02T12:12:59;4.25;;;1.35;;
23230;SDS011;11784;49.818;8.632;2024-03-02T12:15:25;3.00;;;1.20;;
23230;SDS011;11784;49.818;8.632;2024-03-02T12:17:53;3.90;;;1.60;;
23230;SDS011;11784;49.818;8.632;2024-03-02T12:20:19;2.50;;;1.38;;
23230;SDS011;11784;49.818;8.632;2024-03-02T12:22:45;4.85;;;1.00;;
23230;SDS011;11784;49.818;8.632;2024-03-02T12:25:11;1.27;;;0.85;;
23230;SDS011;11784;49.818;8.632;2024-03-02T12:27:38;2.72;;;1.35;;
23230;SDS011;11784;49.818;8.632;2024-03-02T12:30:05;2.13;;;1.30;;
23230;SDS011;11784;49.818;8.632;2024-03-02T12:32:35;2.07;;;1.40;;
23230;SDS011;11784;49.818;8.632;2024-03-02T12:35:01;1.70;;;1.00;;
23230;SDS011;11784;49.818;8.632;2024-03-02T12:37:27;2.92;;;1.30;;
23230;SDS011;11784;49.818;8.632;2024-03-02T12:39:53;3.03;;;1.13;;
23230;SDS011;11784;49.818;8.632;2024-03-02T12:42:19;2.97;;;1.23;;
23230;SDS011;11784;49.818;8.632;2024-03-02T12:44:45;2.83;;;1.23;;
23230;SDS011;11784;49.818;8.632;2024-03-02T12:47:11;3.08;;;1.02;;
23230;SDS011;11784;49.818;8.632;2024-03-02T12:49:39;1.13;;;0.85;;
23230;SDS011;11784;49.818;8.632;2024-03-02T12:52:06;2.85;;;1.40;;
23230;SDS011;11784;49.818;8.632;2024-03-02T12:54:32;1.52;;;0.85;;
23230;SDS011;11784;49.818;8.632;2024-03-02T12:56:58;2.85;;;1.10;;
23230;SDS011;11784;49.818;8.632;2024-03-02T12:59:30;1.75;;;1.15;;
23230;SDS011;11784;49.818;8.632;2024-03-02T13:02:03;3.80;;;1.15;;
23230;SDS011;11784;49.818;8.632;2024-03-02T13:04:29;1.95;;;1.00;;
23230;SDS011;11784;49.818;8.632;2024-03-02T13:06:56;2.85;;;1.20;;
23230;SDS011;11784;49.818;8.632;2024-03-02T13:09:27;3.80;;;1.10;;
23230;SDS011;11784;49.818;8.632;2024-03-02T13:11:53;2.15;;;1.20;;
23230;SDS011;11784;49.818;8.632;2024-03-02T13:14:21;2.40;;;1.10;;
23230;SDS011;11784;49.818;8.632;2024-03-02T13:16:49;1.38;;;0.93;;
23230;SDS011;11784;49.818;8.632;2024-03-02T13:19:17;2.38;;;1.20;;
23230;SDS011;11784;49.818;8.632;2024-03-02T13:21:46;1.67;;;1.10;;
23230;SDS011;11784;49.818;8.632;2024-03-02T13:24:12;3.80;;;1.20;;
23230;SDS011;11784;49.818;8.632;2024-03-02T13:26:38;1.63;;;0.90;;
23230;SDS011;11784;49.818;8.632;2024-03-02T13:29:05;1.42;;;1.13;;
23230;SDS011;11784;49.818;8.632;2024-03-02T13:31:31;1.50;;;0.95;;
23230;SDS011;11784;49.818;8.632;2024-03-02T13:33:57;1.83;;;1.27;;
23230;SDS011;11784;49.818;8.632;2024-03-02T13:36:23;2.00;;;0.85;;
23230;SDS011;11784;49.818;8.632;2024-03-02T13:38:49;4.30;;;1.30;;
23230;SDS011;11784;49.818;8.632;2024-03-02T13:41:15;1.58;;;0.98;;
23230;SDS011;11784;49.818;8.632;2024-03-02T13:43:41;1.85;;;1.05;;
23230;SDS011;11784;49.818;8.632;2024-03-02T13:46:09;2.13;;;1.00;;
23230;SDS011;11784;49.818;8.632;2024-03-02T13:48:35;1.95;;;0.93;;
23230;SDS011;11784;49.818;8.632;2024-03-02T13:51:01;1.80;;;0.93;;
23230;SDS011;11784;49.818;8.632;2024-03-02T13:53:28;2.47;;;1.27;;
23230;SDS011;11784;49.818;8.632;2024-03-02T13:55:54;2.20;;;1.33;;
23230;SDS011;11784;49.818;8.632;2024-03-02T13:58:20;2.78;;;1.10;;
23230;SDS011;11784;49.818;8.632;2024-03-02T14:00:47;1.75;;;1.00;;
23230;SDS011;11784;49.818;8.632;2024-03-02T14:03:14;1.10;;;0.70;;
23230;SDS011;11784;49.818;8.632;2024-03-02T14:05:42;1.75;;;1.05;;
23230;SDS011;11784;49.818;8.632;2024-03-02T14:08:11;1.73;;;0.90;;
23230;SDS011;11784;49.818;8.632;2024-03-02T14:10:38;1.20;;;0.50;;
23230;SDS011;11784;49.818;8.632;2024-03-02T14:13:04;1.15;;;0.63;;
23230;SDS011;11784;49.818;8.632;2024-03-02T14:15:30;1.85;;;1.00;;
23230;SDS011;11784;49.818;8.632;2024-03-02T14:17:56;2.63;;;1.02;;
23230;SDS011;11784;49.818;8.632;2024-03-02T14:20:22;2.08;;;0.77;;
23230;SDS011;11784;49.818;8.632;2024-03-02T14:22:48;1.40;;;0.82;;
23230;SDS011;11784;49.818;8.632;2024-03-02T14:25:14;1.75;;;0.60;;
23230;SDS011;11784;49.818;8.632;2024-03-02T14:27:41;1.45;;;0.73;;
23230;SDS011;11784;49.818;8.632;2024-03-02T14:30:08;1.33;;;0.85;;
23230;SDS011;11784;49.818;8.632;2024-03-02T14:32:35;1.35;;;0.90;;
23230;SDS011;11784;49.818;8.632;2024-03-02T14:35:01;1.40;;;0.80;;
23230;SDS011;11784;49.818;8.632;2024-03-02T14:37:27;2.10;;;1.20;;
23230;SDS011;11784;49.818;8.632;2024-03-02T14:39:53;1.08;;;0.80;;
23230;SDS011;11784;49.818;8.632;2024-03-02T14:42:20;2.00;;;0.73;;
23230;SDS011;11784;49.818;8.632;2024-03-02T14:44:47;1.60;;;0.85;;
23230;SDS011;11784;49.818;8.632;2024-03-02T14:47:13;1.10;;;0.75;;
23230;SDS011;11784;49.818;8.632;2024-03-02T14:49:39;1.35;;;0.85;;